createdAt,value
2023-04-11T00:02:04.851Z,13.64
2023-04-11T00:04:34.707Z,13.65
2023-04-11T00:07:02.218Z,13.50
2023-04-11T00:09:29.731Z,13.57
2023-04-11T00:11:57.479Z,13.51
2023-04-11T00:14:25.262Z,13.46
2023-04-11T00:16:53.944Z,13.53
2023-04-11T00:19:25.604Z,13.54
2023-04-11T00:21:57.594Z,13.47
2023-04-11T00:24:26.192Z,13.37
2023-04-11T00:26:54.270Z,13.35
2023-04-11T00:29:23.806Z,13.42
2023-04-11T00:31:52.898Z,13.38
2023-04-11T00:34:20.694Z,13.33
2023-04-11T00:36:49.107Z,13.27
2023-04-11T00:39:18.601Z,13.21
2023-04-11T00:41:46.861Z,13.26
2023-04-11T00:44:15.138Z,13.30
2023-04-11T00:46:46.019Z,13.38
2023-04-11T00:49:13.845Z,13.26
2023-04-11T00:51:41.376Z,13.28
2023-04-11T00:54:10.510Z,13.30
2023-04-11T00:56:38.056Z,13.30
2023-04-11T00:59:07.184Z,13.27
2023-04-11T01:01:36.447Z,13.20
2023-04-11T01:04:05.783Z,13.22
2023-04-11T01:06:33.786Z,13.21
2023-04-11T01:09:04.985Z,13.21
2023-04-11T01:11:33.791Z,13.26
2023-04-11T01:14:01.889Z,13.17
2023-04-11T01:16:29.686Z,13.22
2023-04-11T01:18:57.508Z,13.26
2023-04-11T01:21:27.216Z,13.11
2023-04-11T01:23:54.704Z,13.18
2023-04-11T01:26:22.133Z,13.04
2023-04-11T01:28:49.740Z,13.03
2023-04-11T01:31:17.310Z,13.09
2023-04-11T01:33:45.935Z,13.10
2023-04-11T01:36:13.843Z,13.14
2023-04-11T01:38:44.534Z,13.20
2023-04-11T01:41:13.271Z,13.24
2023-04-11T01:43:41.454Z,13.40
2023-04-11T01:46:10.377Z,13.35
2023-04-11T01:48:38.675Z,13.20
2023-04-11T01:51:07.530Z,13.29
2023-04-11T01:53:35.042Z,13.16
2023-04-11T01:56:06.238Z,13.20
2023-04-11T01:58:34.055Z,13.21
2023-04-11T02:01:04.065Z,13.22
2023-04-11T02:03:31.934Z,13.20
2023-04-11T02:05:59.765Z,13.18
2023-04-11T02:08:28.502Z,13.22
2023-04-11T02:10:56.629Z,13.25
2023-04-11T02:13:23.990Z,13.25
2023-04-11T02:15:53.817Z,13.12
2023-04-11T02:18:21.734Z,13.15
2023-04-11T02:20:50.282Z,13.22
2023-04-11T02:23:24.475Z,13.18
2023-04-11T02:25:53.069Z,13.19
2023-04-11T02:28:20.476Z,13.08
2023-04-11T02:30:48.009Z,13.15
2023-04-11T02:33:16.502Z,13.08
2023-04-11T02:35:43.940Z,13.20
2023-04-11T02:38:11.802Z,13.22
2023-04-11T02:40:39.840Z,13.12
2023-04-11T02:43:11.687Z,13.15
2023-04-11T02:45:39.685Z,13.22
2023-04-11T02:48:08.251Z,13.23
2023-04-11T02:50:41.084Z,13.20
2023-04-11T02:53:08.890Z,13.09
2023-04-11T02:55:38.515Z,12.94
2023-04-11T02:58:07.906Z,12.98
2023-04-11T03:00:37.784Z,13.16
2023-04-11T03:03:26.552Z,12.93
2023-04-11T03:05:54.642Z,12.91
2023-04-11T03:08:22.993Z,13.04
2023-04-11T03:10:51.915Z,13.01
2023-04-11T03:13:19.657Z,12.93
2023-04-11T03:15:47.190Z,12.97
2023-04-11T03:18:15.916Z,13.12
2023-04-11T03:20:43.358Z,13.10
2023-04-11T03:23:14.905Z,13.15
2023-04-11T03:25:44.728Z,13.17
2023-04-11T03:28:12.102Z,13.04
2023-04-11T03:30:42.601Z,12.99
2023-04-11T03:33:10.689Z,13.21
2023-04-11T03:35:38.623Z,13.14
2023-04-11T03:38:06.626Z,13.11
2023-04-11T03:40:35.174Z,13.08
2023-04-11T03:43:04.586Z,13.20
2023-04-11T03:45:32.848Z,13.09
2023-04-11T03:48:00.787Z,13.14
2023-04-11T03:50:28.376Z,13.04
2023-04-11T03:52:56.031Z,13.03
2023-04-11T03:55:23.529Z,13.09
2023-04-11T03:57:50.922Z,13.07
2023-04-11T04:00:20.181Z,12.95
2023-04-11T04:03:07.310Z,13.06
2023-04-11T04:05:35.034Z,12.99
2023-04-11T04:08:06.532Z,13.03
2023-04-11T04:10:34.605Z,13.07
2023-04-11T04:13:02.316Z,12.95
2023-04-11T04:15:29.882Z,12.98
2023-04-11T04:17:57.440Z,13.01
2023-04-11T04:20:24.793Z,12.92
2023-04-11T04:22:55.736Z,12.81
2023-04-11T04:25:25.839Z,12.97
2023-04-11T04:27:54.266Z,12.91
2023-04-11T04:30:22.144Z,12.97
2023-04-11T04:32:54.950Z,13.08
2023-04-11T04:35:27.476Z,13.01
2023-04-11T04:37:56.528Z,13.04
2023-04-11T04:40:23.986Z,13.17
2023-04-11T04:42:58.908Z,13.11
2023-04-11T04:45:34.534Z,13.15
2023-04-11T04:48:03.469Z,13.19
2023-04-11T04:50:31.118Z,13.12
2023-04-11T04:52:59.056Z,13.30
2023-04-11T04:55:30.366Z,13.28
2023-04-11T04:57:57.975Z,13.28
2023-04-11T05:00:25.515Z,13.31
2023-04-11T05:02:55.017Z,13.33
2023-04-11T05:05:22.630Z,13.41
2023-04-11T05:07:50.149Z,13.34
2023-04-11T05:10:19.455Z,13.38
2023-04-11T05:12:47.733Z,13.64
2023-04-11T05:15:15.288Z,13.51
2023-04-11T05:17:44.952Z,13.62
2023-04-11T05:20:13.662Z,13.70
2023-04-11T05:22:42.346Z,13.75
2023-04-11T05:25:12.133Z,13.77
2023-04-11T05:27:40.638Z,13.90
2023-04-11T05:30:08.571Z,13.99
2023-04-11T05:32:51.209Z,13.99
2023-04-11T05:35:19.032Z,14.17
2023-04-11T05:37:46.548Z,14.17
2023-04-11T05:40:14.447Z,14.05
2023-04-11T05:42:42.765Z,14.05
2023-04-11T05:45:12.465Z,13.97
2023-04-11T05:47:40.233Z,14.15
2023-04-11T05:50:08.637Z,14.03
2023-04-11T05:52:36.713Z,14.19
2023-04-11T05:55:06.136Z,14.34
2023-04-11T05:57:42.061Z,14.24
2023-04-11T06:00:14.337Z,14.46
2023-04-11T06:03:02.689Z,14.55
2023-04-11T06:05:33.727Z,14.50
2023-04-11T06:08:05.790Z,14.47
2023-04-11T06:10:33.624Z,14.67
2023-04-11T06:13:09.207Z,14.92
2023-04-11T06:15:37.518Z,14.83
2023-04-11T06:18:05.086Z,15.01
2023-04-11T06:20:34.291Z,14.86
2023-04-11T06:23:02.206Z,14.67
2023-04-11T06:25:30.043Z,14.92
2023-04-11T06:27:57.663Z,15.01
2023-04-11T06:30:25.430Z,15.12
2023-04-11T06:32:57.185Z,15.00
2023-04-11T06:35:25.203Z,15.03
2023-04-11T06:37:52.789Z,14.96
2023-04-11T06:40:22.668Z,15.07
2023-04-11T06:42:50.314Z,15.21
2023-04-11T06:45:18.039Z,15.08
2023-04-11T06:47:46.545Z,15.03
2023-04-11T06:50:14.231Z,15.21
2023-04-11T06:52:46.667Z,15.25
2023-04-11T06:55:15.708Z,15.18
2023-04-11T06:57:43.997Z,15.36
2023-04-11T07:00:13.114Z,15.49
2023-04-11T07:02:51.207Z,15.61
2023-04-11T07:05:18.836Z,15.82
2023-04-11T07:07:48.099Z,15.56
2023-04-11T07:10:15.923Z,15.77
2023-04-11T07:12:43.357Z,15.65
2023-04-11T07:15:13.142Z,15.84
2023-04-11T07:17:41.254Z,15.63
2023-04-11T07:20:11.855Z,15.70
2023-04-11T07:22:43.519Z,15.71
2023-04-11T07:25:11.022Z,15.66
2023-04-11T07:27:38.977Z,15.88
2023-04-11T07:30:07.292Z,15.81
2023-04-11T07:32:54.599Z,15.80
2023-04-11T07:35:23.699Z,16.02
2023-04-11T07:37:53.759Z,15.85
2023-04-11T07:40:21.271Z,16.09
2023-04-11T07:42:50.278Z,16.25
2023-04-11T07:45:18.040Z,16.18
2023-04-11T07:47:46.344Z,16.18
2023-04-11T07:50:14.284Z,16.34
2023-04-11T07:52:42.194Z,16.27
2023-04-11T07:55:10.167Z,16.15
2023-04-11T07:57:37.542Z,15.89
2023-04-11T08:00:11.567Z,15.99
2023-04-11T08:02:40.089Z,16.16
2023-04-11T08:05:10.144Z,16.21
2023-04-11T08:07:37.680Z,16.64
2023-04-11T08:10:07.280Z,16.76
2023-04-11T08:12:35.139Z,16.73
2023-04-11T08:15:07.074Z,17.00
2023-04-11T08:17:38.575Z,17.15
2023-04-11T08:20:12.190Z,17.21
2023-04-11T08:22:46.942Z,17.04
2023-04-11T08:25:15.282Z,16.94
2023-04-11T08:27:43.186Z,17.19
2023-04-11T08:30:11.026Z,17.16
2023-04-11T08:32:39.027Z,17.28
2023-04-11T08:35:06.720Z,17.30
2023-04-11T08:37:34.752Z,17.26
2023-04-11T08:40:02.225Z,17.17
2023-04-11T08:42:31.243Z,17.18
2023-04-11T08:45:08.871Z,17.39
2023-04-11T08:47:39.245Z,17.36
2023-04-11T08:50:07.394Z,17.32
2023-04-11T08:52:38.014Z,17.12
2023-04-11T08:55:05.778Z,17.13
2023-04-11T08:57:33.378Z,17.32
2023-04-11T09:00:20.126Z,17.22
2023-04-11T09:02:58.071Z,17.38
2023-04-11T09:05:32.380Z,17.66
2023-04-11T09:08:03.673Z,17.89
2023-04-11T09:10:31.537Z,17.86
2023-04-11T09:13:13.506Z,18.20
2023-04-11T09:15:42.209Z,18.30
2023-04-11T09:18:09.753Z,18.15
2023-04-11T09:20:44.047Z,18.11
2023-04-11T09:23:24.293Z,18.50
2023-04-11T09:25:53.594Z,18.51
2023-04-11T09:28:21.930Z,18.55
2023-04-11T09:30:52.353Z,18.50
2023-04-11T09:33:22.787Z,18.64
2023-04-11T09:35:52.844Z,18.74
2023-04-11T09:38:34.344Z,18.88
2023-04-11T09:41:03.475Z,18.92
2023-04-11T09:43:52.845Z,18.83
2023-04-11T09:46:21.480Z,18.62
2023-04-11T09:48:50.355Z,18.80
2023-04-11T09:51:34.222Z,18.71
2023-04-11T09:54:04.547Z,18.33
2023-04-11T09:56:36.786Z,18.09
2023-04-11T09:59:06.068Z,17.98
2023-04-11T10:01:33.759Z,17.99
2023-04-11T10:04:01.578Z,17.79
2023-04-11T10:06:34.587Z,17.86
2023-04-11T10:09:13.144Z,17.69
2023-04-11T10:11:45.609Z,17.67
2023-04-11T10:14:39.333Z,17.66
2023-04-11T10:17:24.250Z,17.75
2023-04-11T10:19:58.996Z,17.81
2023-04-11T10:22:41.659Z,17.93
2023-04-11T10:25:20.445Z,18.02
2023-04-11T10:28:00.976Z,18.12
2023-04-11T10:30:39.809Z,18.31
2023-04-11T10:33:13.952Z,18.44
2023-04-11T10:35:59.865Z,18.56
2023-04-11T10:38:51.749Z,18.53
2023-04-11T10:41:29.370Z,18.71
2023-04-11T10:44:26.136Z,18.56
2023-04-11T10:46:55.388Z,18.38
2023-04-11T10:49:36.940Z,18.44
2023-04-11T10:52:21.806Z,18.40
2023-04-11T10:54:51.342Z,18.23
2023-04-11T10:57:19.598Z,18.54
2023-04-11T10:59:50.600Z,18.56
2023-04-11T11:02:20.061Z,18.35
2023-04-11T11:04:49.392Z,18.45
2023-04-11T11:07:17.531Z,18.41
2023-04-11T11:09:49.594Z,18.45
2023-04-11T11:12:17.622Z,18.41
2023-04-11T11:14:47.538Z,18.47
2023-04-11T11:17:17.148Z,18.46
2023-04-11T11:19:48.645Z,18.50
2023-04-11T11:22:17.779Z,18.60
2023-04-11T11:24:45.431Z,18.75
2023-04-11T11:27:23.625Z,18.77
2023-04-11T11:29:51.805Z,18.87
2023-04-11T11:32:33.019Z,18.82
2023-04-11T11:35:00.516Z,19.00
2023-04-11T11:37:28.253Z,19.11
2023-04-11T11:39:55.924Z,19.21
2023-04-11T11:42:23.356Z,19.38
2023-04-11T11:44:50.980Z,19.50
2023-04-11T11:47:18.990Z,19.48
2023-04-11T11:49:52.119Z,19.66
2023-04-11T11:52:40.870Z,19.55
2023-04-11T11:55:28.914Z,19.47
2023-04-11T11:58:02.331Z,19.45
2023-04-11T12:00:34.979Z,19.22
2023-04-11T12:03:02.974Z,19.21
2023-04-11T12:05:33.163Z,19.17
2023-04-11T12:08:06.047Z,19.17
2023-04-11T12:10:41.887Z,19.04
2023-04-11T12:13:14.971Z,18.74
2023-04-11T12:15:49.986Z,18.71
2023-04-11T12:18:23.902Z,18.79
2023-04-11T12:20:51.760Z,18.85
2023-04-11T12:23:19.742Z,18.66
2023-04-11T12:25:50.384Z,18.89
2023-04-11T12:28:18.545Z,18.82
2023-04-11T12:30:47.232Z,18.77
2023-04-11T12:33:16.567Z,18.77
2023-04-11T12:35:44.114Z,18.79
2023-04-11T12:38:14.953Z,18.89
2023-04-11T12:40:46.407Z,19.00
2023-04-11T12:43:13.848Z,19.02
2023-04-11T12:45:41.508Z,19.09
2023-04-11T12:48:09.224Z,19.16
2023-04-11T12:50:37.006Z,19.17
2023-04-11T12:53:04.405Z,19.15
2023-04-11T12:55:32.031Z,19.06
2023-04-11T12:58:02.255Z,19.02
2023-04-11T13:00:30.237Z,19.01
2023-04-11T13:03:16.210Z,19.22
2023-04-11T13:05:46.586Z,19.23
2023-04-11T13:08:14.366Z,19.21
2023-04-11T13:10:41.697Z,19.37
2023-04-11T13:13:17.932Z,19.28
2023-04-11T13:15:46.905Z,19.22
2023-04-11T13:18:14.540Z,19.18
2023-04-11T13:20:42.714Z,19.23
2023-04-11T13:23:11.451Z,19.11
2023-04-11T13:25:38.944Z,19.24
2023-04-11T13:28:06.391Z,19.15
2023-04-11T13:30:33.770Z,19.18
2023-04-11T13:33:02.053Z,19.13
2023-04-11T13:35:29.969Z,19.10
2023-04-11T13:37:57.804Z,19.19
2023-04-11T13:40:25.410Z,18.96
2023-04-11T13:42:54.627Z,19.11
2023-04-11T13:45:22.335Z,19.11
2023-04-11T13:47:49.949Z,19.06
2023-04-11T13:50:17.578Z,18.91
2023-04-11T13:52:45.183Z,18.91
2023-04-11T13:55:14.379Z,18.85
2023-04-11T13:57:42.372Z,18.96
2023-04-11T14:00:12.578Z,18.89
2023-04-11T14:02:58.712Z,18.80
2023-04-11T14:05:27.169Z,18.85
2023-04-11T14:07:55.743Z,18.71
2023-04-11T14:10:23.281Z,18.77
2023-04-11T14:12:50.767Z,18.56
2023-04-11T14:15:21.881Z,18.63
2023-04-11T14:17:49.949Z,18.44
2023-04-11T14:20:20.482Z,18.48
2023-04-11T14:22:49.582Z,18.56
2023-04-11T14:25:17.046Z,18.55
2023-04-11T14:27:44.947Z,18.58
2023-04-11T14:30:13.169Z,18.50
2023-04-11T14:32:47.711Z,18.43
2023-04-11T14:35:15.639Z,18.38
2023-04-11T14:37:43.376Z,18.45
2023-04-11T14:40:13.832Z,18.49
2023-04-11T14:42:42.951Z,18.49
2023-04-11T14:45:12.189Z,18.44
2023-04-11T14:47:40.310Z,18.45
2023-04-11T14:50:08.351Z,18.42
2023-04-11T14:52:35.965Z,18.42
2023-04-11T14:55:03.793Z,18.34
2023-04-11T14:57:47.322Z,18.25
2023-04-11T15:00:22.862Z,18.21
2023-04-11T15:02:54.130Z,18.05
2023-04-11T15:05:23.380Z,18.12
2023-04-11T15:07:52.647Z,18.02
2023-04-11T15:10:22.963Z,18.01
2023-04-11T15:12:50.532Z,17.98
2023-04-11T15:15:18.067Z,18.10
2023-04-11T15:17:47.724Z,18.11
2023-04-11T15:20:20.180Z,18.06
2023-04-11T15:22:48.132Z,18.13
2023-04-11T15:25:17.060Z,18.03
2023-04-11T15:27:44.584Z,17.96
2023-04-11T15:30:12.218Z,18.09
2023-04-11T15:32:43.914Z,17.90
2023-04-11T15:35:11.656Z,17.80
2023-04-11T15:37:39.451Z,17.83
2023-04-11T15:40:09.460Z,17.87
2023-04-11T15:42:39.621Z,17.91
2023-04-11T15:45:07.802Z,17.73
2023-04-11T15:47:36.060Z,17.63
2023-04-11T15:50:04.837Z,17.79
2023-04-11T15:52:32.681Z,17.76
2023-04-11T15:55:00.397Z,17.71
2023-04-11T15:57:28.761Z,17.42
2023-04-11T15:59:56.188Z,17.37
2023-04-11T16:02:24.351Z,17.36
2023-04-11T16:04:54.003Z,16.94
2023-04-11T16:07:23.383Z,16.70
2023-04-11T16:09:50.852Z,16.70
2023-04-11T16:12:18.672Z,16.66
2023-04-11T16:14:46.770Z,16.19
2023-04-11T16:17:18.388Z,16.09
2023-04-11T16:19:46.078Z,16.16
2023-04-11T16:22:13.497Z,15.96
2023-04-11T16:24:42.974Z,15.70
2023-04-11T16:27:10.508Z,15.71
2023-04-11T16:29:38.069Z,15.76
2023-04-11T16:32:05.860Z,15.70
2023-04-11T16:34:33.330Z,15.76
2023-04-11T16:37:01.403Z,15.90
2023-04-11T16:39:29.927Z,15.92
2023-04-11T16:41:57.806Z,16.06
2023-04-11T16:44:26.521Z,16.04
2023-04-11T16:46:53.922Z,16.13
2023-04-11T16:49:21.398Z,16.05
2023-04-11T16:51:49.083Z,16.11
2023-04-11T16:54:16.524Z,16.06
2023-04-11T16:56:44.299Z,16.09
2023-04-11T16:59:12.505Z,16.05
2023-04-11T17:01:41.879Z,16.18
2023-04-11T17:04:12.615Z,16.18
2023-04-11T17:06:40.039Z,16.12
2023-04-11T17:09:07.945Z,16.18
2023-04-11T17:11:37.859Z,16.18
2023-04-11T17:14:10.260Z,16.21
2023-04-11T17:16:37.930Z,16.27
2023-04-11T17:19:05.395Z,16.29
2023-04-11T17:21:36.855Z,16.19
2023-04-11T17:24:04.530Z,16.13
2023-04-11T17:26:32.265Z,16.15
2023-04-11T17:29:00.144Z,16.30
2023-04-11T17:31:29.409Z,16.22
2023-04-11T17:33:58.386Z,16.27
2023-04-11T17:36:28.417Z,16.24
2023-04-11T17:38:55.953Z,16.32
2023-04-11T17:41:23.457Z,16.29
2023-04-11T17:43:50.862Z,16.14
2023-04-11T17:46:20.405Z,16.32
2023-04-11T17:48:48.004Z,16.20
2023-04-11T17:51:15.439Z,16.09
2023-04-11T17:53:44.136Z,16.23
2023-04-11T17:56:12.494Z,16.12
2023-04-11T17:58:44.369Z,16.12
2023-04-11T18:01:12.902Z,16.03
2023-04-11T18:03:41.450Z,16.10
2023-04-11T18:06:09.389Z,15.87
2023-04-11T18:11:11.076Z,15.92
2023-04-11T18:13:38.532Z,15.94
2023-04-11T18:16:08.075Z,15.98
2023-04-11T18:18:36.862Z,15.77
2023-04-11T18:21:07.149Z,15.62
2023-04-11T18:23:35.891Z,15.72
2023-04-11T18:26:03.544Z,15.49
2023-04-11T18:28:33.805Z,15.51
2023-04-11T18:31:01.783Z,15.41
2023-04-11T18:33:29.596Z,15.30
2023-04-11T18:36:02.732Z,15.27
2023-04-11T18:38:30.820Z,15.36
2023-04-11T18:41:01.237Z,15.42
2023-04-11T18:43:32.944Z,15.42
2023-04-11T18:46:02.063Z,15.47
2023-04-11T18:48:35.632Z,15.39
2023-04-11T18:51:04.999Z,15.23
2023-04-11T18:53:32.599Z,15.51
2023-04-11T18:56:03.134Z,15.34
2023-04-11T18:58:34.308Z,15.51
2023-04-11T19:01:14.691Z,15.37
2023-04-11T19:03:44.547Z,15.18
2023-04-11T19:06:13.044Z,15.14
2023-04-11T19:08:44.876Z,15.31
2023-04-11T19:11:12.594Z,15.16
2023-04-11T19:13:41.256Z,15.06
2023-04-11T19:16:09.056Z,15.12
2023-04-11T19:18:36.880Z,15.02
2023-04-11T19:21:04.561Z,15.00
2023-04-11T19:23:35.003Z,14.99
2023-04-11T19:26:02.674Z,14.91
2023-04-11T19:28:30.290Z,14.89
2023-04-11T19:30:57.695Z,14.64
2023-04-11T19:33:26.401Z,14.77
2023-04-11T19:35:54.443Z,14.84
2023-04-11T19:38:21.986Z,14.66
2023-04-11T19:40:49.450Z,14.67
2023-04-11T19:43:18.289Z,14.63
2023-04-11T19:45:46.441Z,14.68
2023-04-11T19:48:14.419Z,14.53
2023-04-11T19:50:46.198Z,14.56
2023-04-11T19:53:13.922Z,14.55
2023-04-11T19:55:41.502Z,14.72
2023-04-11T19:58:09.727Z,14.70
2023-04-11T20:00:38.688Z,14.46
2023-04-11T20:03:18.048Z,14.57
2023-04-11T20:05:46.422Z,14.62
2023-04-11T20:08:14.424Z,14.65
2023-04-11T20:10:41.949Z,14.51
2023-04-11T20:13:09.612Z,14.34
2023-04-11T20:15:37.135Z,14.41
2023-04-11T20:18:05.767Z,14.37
2023-04-11T20:20:33.773Z,14.35
2023-04-11T20:23:07.155Z,14.25
2023-04-11T20:25:35.674Z,14.32
2023-04-11T20:28:03.486Z,14.11
2023-04-11T20:30:31.028Z,14.32
2023-04-11T20:32:58.725Z,14.15
2023-04-11T20:35:26.153Z,14.25
2023-04-11T20:37:54.204Z,14.42
2023-04-11T20:40:21.902Z,14.32
2023-04-11T20:42:50.304Z,14.14
2023-04-11T20:45:21.816Z,14.34
2023-04-11T20:47:53.025Z,14.28
2023-04-11T20:50:21.858Z,14.33
2023-04-11T20:52:53.099Z,14.28
2023-04-11T20:55:21.382Z,14.16
2023-04-11T20:57:48.869Z,14.20
2023-04-11T21:00:18.643Z,14.22
2023-04-11T21:02:50.737Z,14.22
2023-04-11T21:05:19.692Z,14.28
2023-04-11T21:07:54.511Z,14.05
2023-04-11T21:10:22.527Z,14.15
2023-04-11T21:12:54.179Z,14.09
2023-04-11T21:15:26.873Z,14.23
2023-04-11T21:17:54.543Z,14.00
2023-04-11T21:20:22.658Z,14.15
2023-04-11T21:22:55.936Z,14.12
2023-04-11T21:25:24.209Z,14.03
2023-04-11T21:27:51.764Z,14.04
2023-04-11T21:30:19.243Z,14.04
2023-04-11T21:33:05.226Z,14.22
2023-04-11T21:35:34.551Z,14.10
2023-04-11T21:38:02.006Z,13.97
2023-04-11T21:40:29.681Z,13.92
2023-04-11T21:42:57.316Z,13.85
2023-04-11T21:45:30.557Z,13.93
2023-04-11T21:47:57.921Z,13.97
2023-04-11T21:50:25.593Z,14.05
2023-04-11T21:52:53.853Z,14.12
2023-04-11T21:55:22.234Z,14.05
2023-04-11T21:57:49.672Z,13.93
2023-04-11T22:00:18.239Z,14.07
2023-04-11T22:02:45.879Z,13.92
2023-04-11T22:05:13.674Z,14.04
2023-04-11T22:07:48.840Z,13.95
2023-04-11T22:10:23.744Z,13.95
2023-04-11T22:12:54.514Z,13.92
2023-04-11T22:15:24.172Z,13.90
2023-04-11T22:17:56.674Z,13.87
2023-04-11T22:20:24.189Z,13.98
2023-04-11T22:22:53.012Z,14.00
2023-04-11T22:25:22.375Z,14.06
2023-04-11T22:27:54.582Z,13.86
2023-04-11T22:30:23.625Z,13.87
2023-04-11T22:33:04.186Z,13.95
2023-04-11T22:35:33.259Z,13.90
2023-04-11T22:38:00.897Z,13.96
2023-04-11T22:40:28.414Z,13.97
2023-04-11T22:42:57.011Z,13.99
2023-04-11T22:45:24.675Z,13.90
2023-04-11T22:47:54.346Z,13.96
2023-04-11T22:50:22.813Z,14.00
2023-04-11T22:52:50.326Z,13.89
2023-04-11T22:55:21.239Z,13.88
2023-04-11T22:57:48.761Z,14.01
2023-04-11T23:00:19.114Z,14.03
2023-04-11T23:02:47.405Z,14.00
2023-04-11T23:05:16.926Z,13.88
2023-04-11T23:07:44.763Z,13.90
2023-04-11T23:10:15.007Z,13.81
2023-04-11T23:12:42.416Z,13.92
2023-04-11T23:15:11.603Z,13.96
2023-04-11T23:17:40.161Z,13.77
2023-04-11T23:20:12.969Z,13.82
2023-04-11T23:22:42.455Z,13.91
2023-04-11T23:25:11.766Z,13.76
2023-04-11T23:27:47.594Z,13.54
2023-04-11T23:30:17.679Z,13.63
2023-04-11T23:33:06.085Z,13.54
2023-04-11T23:35:34.546Z,13.51
2023-04-11T23:38:03.181Z,13.58
2023-04-11T23:40:33.812Z,13.57
2023-04-11T23:43:01.850Z,13.53
2023-04-11T23:45:29.394Z,13.62
2023-04-11T23:47:59.393Z,13.56
2023-04-11T23:50:26.799Z,13.59
2023-04-11T23:52:54.292Z,13.56
2023-04-11T23:55:22.005Z,13.52
2023-04-11T23:57:49.734Z,13.55
